sensor_id;sensor_type;location;lat;lon;timestamp;temperature;humidity
25949;DHT22;13961;51.178;4.448;2022-10-19T00:01:10;11.90;99.90
25949;DHT22;13961;51.178;4.448;2022-10-19T00:03:37;11.90;99.90
25949;DHT22;13961;51.178;4.448;2022-10-19T00:08:35;12.00;99.90
25949;DHT22;13961;51.178;4.448;2022-10-19T00:11:01;12.00;99.90
25949;DHT22;13961;51.178;4.448;2022-10-19T00:13:27;12.00;99.90
25949;DHT22;13961;51.178;4.448;2022-10-19T00:15:52;12.00;99.90
25949;DHT22;13961;51.178;4.448;2022-10-19T00:18:18;12.10;99.90
25949;DHT22;13961;51.178;4.448;2022-10-19T00:20:44;11.90;99.90
25949;DHT22;13961;51.178;4.448;2022-10-19T00:23:09;11.90;99.90
25949;DHT22;13961;51.178;4.448;2022-10-19T00:25:35;11.80;99.90
25949;DHT22;13961;51.178;4.448;2022-10-19T00:28:02;11.90;99.90
25949;DHT22;13961;51.178;4.448;2022-10-19T00:30:28;11.70;99.90
25949;DHT22;13961;51.178;4.448;2022-10-19T00:32:54;11.60;99.90
25949;DHT22;13961;51.178;4.448;2022-10-19T00:35:20;11.60;99.90
25949;DHT22;13961;51.178;4.448;2022-10-19T00:37:45;11.60;99.90
25949;DHT22;13961;51.178;4.448;2022-10-19T00:40:11;11.80;99.90
25949;DHT22;13961;51.178;4.448;2022-10-19T00:42:37;11.50;99.90
25949;DHT22;13961;51.178;4.448;2022-10-19T00:45:11;11.50;99.90
25949;DHT22;13961;51.178;4.448;2022-10-19T00:47:37;11.50;99.90
25949;DHT22;13961;51.178;4.448;2022-10-19T00:50:04;11.40;99.90
25949;DHT22;13961;51.178;4.448;2022-10-19T00:52:30;11.50;99.90
25949;DHT22;13961;51.178;4.448;2022-10-19T00:54:57;11.60;99.90
25949;DHT22;13961;51.178;4.448;2022-10-19T00:57:26;11.60;99.90
25949;DHT22;13961;51.178;4.448;2022-10-19T00:59:53;11.60;99.90
25949;DHT22;13961;51.178;4.448;2022-10-19T01:02:19;11.30;99.90
25949;DHT22;13961;51.178;4.448;2022-10-19T01:04:49;11.20;99.90
25949;DHT22;13961;51.178;4.448;2022-10-19T01:07:17;11.50;99.90
25949;DHT22;13961;51.178;4.448;2022-10-19T01:09:43;11.40;99.90
25949;DHT22;13961;51.178;4.448;2022-10-19T01:12:30;11.40;99.90
25949;DHT22;13961;51.178;4.448;2022-10-19T01:18:01;11.40;99.90
25949;DHT22;13961;51.178;4.448;2022-10-19T01:28:38;11.30;99.90
25949;DHT22;13961;51.178;4.448;2022-10-19T01:31:24;11.30;99.90
25949;DHT22;13961;51.178;4.448;2022-10-19T01:34:03;11.40;99.90
25949;DHT22;13961;51.178;4.448;2022-10-19T01:36:38;11.20;99.90
25949;DHT22;13961;51.178;4.448;2022-10-19T01:39:21;11.20;99.90
25949;DHT22;13961;51.178;4.448;2022-10-19T01:41:52;11.20;99.90
25949;DHT22;13961;51.178;4.448;2022-10-19T01:44:22;11.20;99.90
25949;DHT22;13961;51.178;4.448;2022-10-19T01:46:57;11.40;99.90
25949;DHT22;13961;51.178;4.448;2022-10-19T01:50:01;11.20;99.90
25949;DHT22;13961;51.178;4.448;2022-10-19T01:52:28;11.20;99.90
25949;DHT22;13961;51.178;4.448;2022-10-19T01:54:57;11.20;99.90
25949;DHT22;13961;51.178;4.448;2022-10-19T01:57:37;11.30;99.90
25949;DHT22;13961;51.178;4.448;2022-10-19T02:00:06;11.30;99.90
25949;DHT22;13961;51.178;4.448;2022-10-19T02:02:39;11.30;99.90
25949;DHT22;13961;51.178;4.448;2022-10-19T02:05:07;11.30;99.90
25949;DHT22;13961;51.178;4.448;2022-10-19T02:07:37;11.30;99.90
25949;DHT22;13961;51.178;4.448;2022-10-19T02:10:05;11.20;99.90
25949;DHT22;13961;51.178;4.448;2022-10-19T02:12:32;11.20;99.90
25949;DHT22;13961;51.178;4.448;2022-10-19T02:15:02;11.20;99.90
25949;DHT22;13961;51.178;4.448;2022-10-19T02:17:35;11.20;99.90
25949;DHT22;13961;51.178;4.448;2022-10-19T02:20:03;11.20;99.90
25949;DHT22;13961;51.178;4.448;2022-10-19T02:22:30;11.10;99.90
25949;DHT22;13961;51.178;4.448;2022-10-19T02:24:56;11.20;99.90
25949;DHT22;13961;51.178;4.448;2022-10-19T02:27:22;11.10;99.90
25949;DHT22;13961;51.178;4.448;2022-10-19T02:29:48;11.20;99.90
25949;DHT22;13961;51.178;4.448;2022-10-19T02:32:14;10.90;99.90
25949;DHT22;13961;51.178;4.448;2022-10-19T02:34:40;11.20;99.90
25949;DHT22;13961;51.178;4.448;2022-10-19T02:37:06;10.70;99.90
25949;DHT22;13961;51.178;4.448;2022-10-19T02:39:33;10.60;99.90
25949;DHT22;13961;51.178;4.448;2022-10-19T02:42:10;10.70;99.90
25949;DHT22;13961;51.178;4.448;2022-10-19T02:44:45;10.40;99.90
25949;DHT22;13961;51.178;4.448;2022-10-19T02:47:16;10.20;99.90
25949;DHT22;13961;51.178;4.448;2022-10-19T02:49:43;10.30;99.90
25949;DHT22;13961;51.178;4.448;2022-10-19T02:52:11;10.40;99.90
25949;DHT22;13961;51.178;4.448;2022-10-19T02:54:39;10.30;99.90
25949;DHT22;13961;51.178;4.448;2022-10-19T02:57:17;10.30;99.90
25949;DHT22;13961;51.178;4.448;2022-10-19T02:59:43;10.40;99.90
25949;DHT22;13961;51.178;4.448;2022-10-19T03:02:08;10.50;99.90
25949;DHT22;13961;51.178;4.448;2022-10-19T03:04:34;10.40;99.90
25949;DHT22;13961;51.178;4.448;2022-10-19T03:07:00;10.40;99.90
25949;DHT22;13961;51.178;4.448;2022-10-19T03:09:26;10.30;99.90
25949;DHT22;13961;51.178;4.448;2022-10-19T03:11:52;10.30;99.90
25949;DHT22;13961;51.178;4.448;2022-10-19T03:14:19;10.50;99.90
25949;DHT22;13961;51.178;4.448;2022-10-19T03:16:44;10.40;99.90
25949;DHT22;13961;51.178;4.448;2022-10-19T03:19:10;10.30;99.90
25949;DHT22;13961;51.178;4.448;2022-10-19T03:21:36;10.10;99.90
25949;DHT22;13961;51.178;4.448;2022-10-19T03:24:04;10.10;99.90
25949;DHT22;13961;51.178;4.448;2022-10-19T03:26:30;10.10;99.90
25949;DHT22;13961;51.178;4.448;2022-10-19T03:28:57;10.50;99.90
25949;DHT22;13961;51.178;4.448;2022-10-19T03:31:23;10.40;99.90
25949;DHT22;13961;51.178;4.448;2022-10-19T03:33:48;10.50;99.90
25949;DHT22;13961;51.178;4.448;2022-10-19T03:36:26;10.40;99.90
25949;DHT22;13961;51.178;4.448;2022-10-19T03:38:53;10.30;99.90
25949;DHT22;13961;51.178;4.448;2022-10-19T03:41:22;10.50;99.90
25949;DHT22;13961;51.178;4.448;2022-10-19T03:43:48;10.20;99.90
25949;DHT22;13961;51.178;4.448;2022-10-19T03:46:14;10.50;99.90
25949;DHT22;13961;51.178;4.448;2022-10-19T03:48:41;10.40;99.90
25949;DHT22;13961;51.178;4.448;2022-10-19T03:51:12;10.40;99.90
25949;DHT22;13961;51.178;4.448;2022-10-19T03:53:38;10.40;99.90
25949;DHT22;13961;51.178;4.448;2022-10-19T03:56:15;10.30;99.90
25949;DHT22;13961;51.178;4.448;2022-10-19T03:58:42;10.20;99.90
25949;DHT22;13961;51.178;4.448;2022-10-19T04:01:15;10.00;99.90
25949;DHT22;13961;51.178;4.448;2022-10-19T04:03:41;9.90;99.90
25949;DHT22;13961;51.178;4.448;2022-10-19T04:06:09;9.80;99.90
25949;DHT22;13961;51.178;4.448;2022-10-19T04:08:42;9.90;99.90
25949;DHT22;13961;51.178;4.448;2022-10-19T04:11:11;10.10;99.90
25949;DHT22;13961;51.178;4.448;2022-10-19T04:13:38;10.10;99.90
25949;DHT22;13961;51.178;4.448;2022-10-19T04:16:04;10.30;99.90
25949;DHT22;13961;51.178;4.448;2022-10-19T04:18:30;10.30;99.90
25949;DHT22;13961;51.178;4.448;2022-10-19T04:21:02;10.20;99.90
25949;DHT22;13961;51.178;4.448;2022-10-19T04:23:30;10.20;99.90
25949;DHT22;13961;51.178;4.448;2022-10-19T04:26:05;10.10;99.90
25949;DHT22;13961;51.178;4.448;2022-10-19T04:28:32;9.90;99.90
25949;DHT22;13961;51.178;4.448;2022-10-19T04:31:05;10.00;99.90
25949;DHT22;13961;51.178;4.448;2022-10-19T04:33:32;10.10;99.90
25949;DHT22;13961;51.178;4.448;2022-10-19T04:35:59;10.20;99.90
25949;DHT22;13961;51.178;4.448;2022-10-19T04:38:25;10.40;99.90
25949;DHT22;13961;51.178;4.448;2022-10-19T04:40:51;10.10;99.90
25949;DHT22;13961;51.178;4.448;2022-10-19T04:43:18;9.90;99.90
25949;DHT22;13961;51.178;4.448;2022-10-19T04:45:43;10.20;99.90
25949;DHT22;13961;51.178;4.448;2022-10-19T04:48:09;10.10;99.90
25949;DHT22;13961;51.178;4.448;2022-10-19T04:50:34;9.80;99.90
25949;DHT22;13961;51.178;4.448;2022-10-19T04:53:01;10.00;99.90
25949;DHT22;13961;51.178;4.448;2022-10-19T04:55:27;9.80;99.90
25949;DHT22;13961;51.178;4.448;2022-10-19T04:57:54;10.00;99.90
25949;DHT22;13961;51.178;4.448;2022-10-19T05:00:19;10.00;99.90
25949;DHT22;13961;51.178;4.448;2022-10-19T05:02:46;9.90;99.90
25949;DHT22;13961;51.178;4.448;2022-10-19T05:05:12;9.80;99.90
25949;DHT22;13961;51.178;4.448;2022-10-19T05:07:38;9.80;99.90
25949;DHT22;13961;51.178;4.448;2022-10-19T05:10:04;9.90;99.90
25949;DHT22;13961;51.178;4.448;2022-10-19T05:12:33;9.90;99.90
25949;DHT22;13961;51.178;4.448;2022-10-19T05:14:58;9.80;99.90
25949;DHT22;13961;51.178;4.448;2022-10-19T05:17:30;10.00;99.90
25949;DHT22;13961;51.178;4.448;2022-10-19T05:19:56;10.00;99.90
25949;DHT22;13961;51.178;4.448;2022-10-19T05:22:22;9.80;99.90
25949;DHT22;13961;51.178;4.448;2022-10-19T05:24:48;9.80;99.90
25949;DHT22;13961;51.178;4.448;2022-10-19T05:27:14;10.00;99.90
25949;DHT22;13961;51.178;4.448;2022-10-19T05:29:39;9.80;99.90
25949;DHT22;13961;51.178;4.448;2022-10-19T05:32:06;9.70;99.90
25949;DHT22;13961;51.178;4.448;2022-10-19T05:34:32;9.70;99.90
25949;DHT22;13961;51.178;4.448;2022-10-19T05:36:58;9.60;99.90
25949;DHT22;13961;51.178;4.448;2022-10-19T05:39:24;9.60;99.90
25949;DHT22;13961;51.178;4.448;2022-10-19T05:41:50;9.60;99.90
25949;DHT22;13961;51.178;4.448;2022-10-19T05:44:21;9.70;99.90
25949;DHT22;13961;51.178;4.448;2022-10-19T05:46:48;9.60;99.90
25949;DHT22;13961;51.178;4.448;2022-10-19T05:49:16;9.50;99.90
25949;DHT22;13961;51.178;4.448;2022-10-19T05:51:44;9.50;99.90
25949;DHT22;13961;51.178;4.448;2022-10-19T05:54:12;9.30;99.90
25949;DHT22;13961;51.178;4.448;2022-10-19T05:56:39;9.30;99.90
25949;DHT22;13961;51.178;4.448;2022-10-19T05:59:06;9.40;99.90
25949;DHT22;13961;51.178;4.448;2022-10-19T06:01:33;9.10;99.90
25949;DHT22;13961;51.178;4.448;2022-10-19T06:04:00;9.00;99.90
25949;DHT22;13961;51.178;4.448;2022-10-19T06:06:26;9.40;99.90
25949;DHT22;13961;51.178;4.448;2022-10-19T06:08:53;9.30;99.90
25949;DHT22;13961;51.178;4.448;2022-10-19T06:11:26;9.40;99.90
25949;DHT22;13961;51.178;4.448;2022-10-19T06:13:53;9.20;99.90
25949;DHT22;13961;51.178;4.448;2022-10-19T06:16:20;9.20;99.90
25949;DHT22;13961;51.178;4.448;2022-10-19T06:18:47;9.40;99.90
25949;DHT22;13961;51.178;4.448;2022-10-19T06:21:18;9.30;99.90
25949;DHT22;13961;51.178;4.448;2022-10-19T06:23:44;9.30;99.90
25949;DHT22;13961;51.178;4.448;2022-10-19T06:26:11;9.30;99.90
25949;DHT22;13961;51.178;4.448;2022-10-19T06:28:39;9.50;99.90
25949;DHT22;13961;51.178;4.448;2022-10-19T06:31:06;9.70;99.90
25949;DHT22;13961;51.178;4.448;2022-10-19T06:33:32;9.70;99.90
25949;DHT22;13961;51.178;4.448;2022-10-19T06:36:25;9.80;99.90
25949;DHT22;13961;51.178;4.448;2022-10-19T06:38:52;9.70;99.90
25949;DHT22;13961;51.178;4.448;2022-10-19T06:41:18;9.60;99.90
25949;DHT22;13961;51.178;4.448;2022-10-19T06:43:49;9.70;99.90
25949;DHT22;13961;51.178;4.448;2022-10-19T06:46:15;9.80;99.90
25949;DHT22;13961;51.178;4.448;2022-10-19T06:48:52;9.70;99.90
25949;DHT22;13961;51.178;4.448;2022-10-19T06:51:18;9.60;99.90
25949;DHT22;13961;51.178;4.448;2022-10-19T06:53:44;9.50;99.90
25949;DHT22;13961;51.178;4.448;2022-10-19T06:56:09;9.60;99.90
25949;DHT22;13961;51.178;4.448;2022-10-19T06:58:36;9.60;99.90
25949;DHT22;13961;51.178;4.448;2022-10-19T07:01:04;9.70;99.90
25949;DHT22;13961;51.178;4.448;2022-10-19T07:03:32;9.70;99.90
25949;DHT22;13961;51.178;4.448;2022-10-19T07:06:00;9.60;99.90
25949;DHT22;13961;51.178;4.448;2022-10-19T07:08:27;9.80;99.90
25949;DHT22;13961;51.178;4.448;2022-10-19T07:10:56;10.40;99.90
25949;DHT22;13961;51.178;4.448;2022-10-19T07:13:22;10.90;99.90
25949;DHT22;13961;51.178;4.448;2022-10-19T07:15:48;11.30;99.90
25949;DHT22;13961;51.178;4.448;2022-10-19T07:18:14;11.70;99.90
25949;DHT22;13961;51.178;4.448;2022-10-19T07:20:40;12.30;99.90
25949;DHT22;13961;51.178;4.448;2022-10-19T07:23:06;12.50;99.90
25949;DHT22;13961;51.178;4.448;2022-10-19T07:25:35;12.90;99.90
25949;DHT22;13961;51.178;4.448;2022-10-19T07:28:00;13.00;99.90
25949;DHT22;13961;51.178;4.448;2022-10-19T07:30:26;13.20;99.90
25949;DHT22;13961;51.178;4.448;2022-10-19T07:32:51;12.90;99.90
25949;DHT22;13961;51.178;4.448;2022-10-19T07:35:17;13.00;99.90
25949;DHT22;13961;51.178;4.448;2022-10-19T07:37:43;13.50;99.90
25949;DHT22;13961;51.178;4.448;2022-10-19T07:40:09;13.30;99.90
25949;DHT22;13961;51.178;4.448;2022-10-19T07:42:35;13.30;99.90
25949;DHT22;13961;51.178;4.448;2022-10-19T07:45:02;13.40;99.90
25949;DHT22;13961;51.178;4.448;2022-10-19T07:47:28;13.20;99.90
25949;DHT22;13961;51.178;4.448;2022-10-19T07:49:56;13.30;99.90
25949;DHT22;13961;51.178;4.448;2022-10-19T07:52:21;14.10;99.90
25949;DHT22;13961;51.178;4.448;2022-10-19T07:54:48;14.30;99.90
25949;DHT22;13961;51.178;4.448;2022-10-19T07:57:14;14.20;99.90
25949;DHT22;13961;51.178;4.448;2022-10-19T07:59:40;14.20;99.90
25949;DHT22;13961;51.178;4.448;2022-10-19T08:02:13;14.20;99.90
25949;DHT22;13961;51.178;4.448;2022-10-19T08:04:40;14.50;99.90
25949;DHT22;13961;51.178;4.448;2022-10-19T08:07:06;15.00;99.90
25949;DHT22;13961;51.178;4.448;2022-10-19T08:09:31;14.90;99.90
25949;DHT22;13961;51.178;4.448;2022-10-19T08:11:57;14.70;99.90
25949;DHT22;13961;51.178;4.448;2022-10-19T08:14:23;14.80;99.90
25949;DHT22;13961;51.178;4.448;2022-10-19T08:16:48;14.90;99.90
25949;DHT22;13961;51.178;4.448;2022-10-19T08:19:15;15.20;99.90
25949;DHT22;13961;51.178;4.448;2022-10-19T08:21:44;14.70;99.90
25949;DHT22;13961;51.178;4.448;2022-10-19T08:24:14;14.10;99.90
25949;DHT22;13961;51.178;4.448;2022-10-19T08:26:42;13.50;99.90
25949;DHT22;13961;51.178;4.448;2022-10-19T08:29:18;13.20;99.90
25949;DHT22;13961;51.178;4.448;2022-10-19T08:31:46;13.10;99.90
25949;DHT22;13961;51.178;4.448;2022-10-19T08:34:12;13.00;99.90
25949;DHT22;13961;51.178;4.448;2022-10-19T08:36:38;12.90;99.90
25949;DHT22;13961;51.178;4.448;2022-10-19T08:39:06;13.00;99.90
25949;DHT22;13961;51.178;4.448;2022-10-19T08:41:39;12.80;99.90
25949;DHT22;13961;51.178;4.448;2022-10-19T08:49:26;13.30;99.90
25949;DHT22;13961;51.178;4.448;2022-10-19T08:51:56;13.40;99.90
25949;DHT22;13961;51.178;4.448;2022-10-19T08:54:23;13.30;99.90
25949;DHT22;13961;51.178;4.448;2022-10-19T08:57:09;13.40;99.90
25949;DHT22;13961;51.178;4.448;2022-10-19T09:02:21;13.40;99.90
25949;DHT22;13961;51.178;4.448;2022-10-19T09:05:02;13.60;99.90
25949;DHT22;13961;51.178;4.448;2022-10-19T09:07:32;13.80;99.90
25949;DHT22;13961;51.178;4.448;2022-10-19T09:13:09;13.80;99.90
25949;DHT22;13961;51.178;4.448;2022-10-19T09:18:13;13.60;99.90
25949;DHT22;13961;51.178;4.448;2022-10-19T09:20:42;13.60;99.90
25949;DHT22;13961;51.178;4.448;2022-10-19T09:25:49;13.90;99.90
25949;DHT22;13961;51.178;4.448;2022-10-19T09:31:30;13.90;99.90
25949;DHT22;13961;51.178;4.448;2022-10-19T09:34:01;13.90;99.90
25949;DHT22;13961;51.178;4.448;2022-10-19T09:36:37;13.90;99.90
25949;DHT22;13961;51.178;4.448;2022-10-19T09:39:04;13.90;99.90
25949;DHT22;13961;51.178;4.448;2022-10-19T09:41:30;14.00;99.90
25949;DHT22;13961;51.178;4.448;2022-10-19T09:43:56;14.00;99.90
25949;DHT22;13961;51.178;4.448;2022-10-19T09:49:45;14.30;99.90
25949;DHT22;13961;51.178;4.448;2022-10-19T09:55:02;14.50;99.90
25949;DHT22;13961;51.178;4.448;2022-10-19T09:57:28;14.40;99.90
25949;DHT22;13961;51.178;4.448;2022-10-19T09:59:55;14.70;99.90
25949;DHT22;13961;51.178;4.448;2022-10-19T10:02:28;14.70;99.90
25949;DHT22;13961;51.178;4.448;2022-10-19T10:05:06;14.80;99.90
25949;DHT22;13961;51.178;4.448;2022-10-19T10:07:35;14.90;99.90
25949;DHT22;13961;51.178;4.448;2022-10-19T10:10:18;14.90;99.90
25949;DHT22;13961;51.178;4.448;2022-10-19T10:12:45;15.00;99.90
25949;DHT22;13961;51.178;4.448;2022-10-19T10:15:25;15.20;99.90
25949;DHT22;13961;51.178;4.448;2022-10-19T10:17:51;15.30;99.90
25949;DHT22;13961;51.178;4.448;2022-10-19T10:20:27;15.30;99.90
25949;DHT22;13961;51.178;4.448;2022-10-19T10:23:04;15.50;99.90
25949;DHT22;13961;51.178;4.448;2022-10-19T10:25:32;15.50;99.90
25949;DHT22;13961;51.178;4.448;2022-10-19T10:28:22;15.50;99.90
25949;DHT22;13961;51.178;4.448;2022-10-19T10:30:54;15.60;99.90
25949;DHT22;13961;51.178;4.448;2022-10-19T10:33:26;15.70;99.90
25949;DHT22;13961;51.178;4.448;2022-10-19T10:35:55;15.90;99.90
25949;DHT22;13961;51.178;4.448;2022-10-19T10:38:30;15.70;99.90
25949;DHT22;13961;51.178;4.448;2022-10-19T10:41:00;15.60;99.90
25949;DHT22;13961;51.178;4.448;2022-10-19T10:43:32;15.70;99.90
25949;DHT22;13961;51.178;4.448;2022-10-19T10:46:14;15.80;99.90
25949;DHT22;13961;51.178;4.448;2022-10-19T10:48:43;16.00;99.90
25949;DHT22;13961;51.178;4.448;2022-10-19T10:51:38;15.90;99.90
25949;DHT22;13961;51.178;4.448;2022-10-19T10:54:18;15.80;99.90
25949;DHT22;13961;51.178;4.448;2022-10-19T10:56:57;15.70;99.90
25949;DHT22;13961;51.178;4.448;2022-10-19T10:59:28;15.80;99.90
25949;DHT22;13961;51.178;4.448;2022-10-19T11:04:49;16.30;99.90
25949;DHT22;13961;51.178;4.448;2022-10-19T11:07:22;16.40;99.90
25949;DHT22;13961;51.178;4.448;2022-10-19T11:09:53;16.50;99.90
25949;DHT22;13961;51.178;4.448;2022-10-19T11:12:37;16.60;99.90
25949;DHT22;13961;51.178;4.448;2022-10-19T11:15:23;16.50;99.90
25949;DHT22;13961;51.178;4.448;2022-10-19T11:18:04;16.60;99.90
25949;DHT22;13961;51.178;4.448;2022-10-19T11:20:34;16.60;99.90
25949;DHT22;13961;51.178;4.448;2022-10-19T11:23:26;16.60;99.90
25949;DHT22;13961;51.178;4.448;2022-10-19T11:31:37;16.50;99.90
25949;DHT22;13961;51.178;4.448;2022-10-19T11:34:34;16.60;99.90
25949;DHT22;13961;51.178;4.448;2022-10-19T11:37:34;16.70;99.90
25949;DHT22;13961;51.178;4.448;2022-10-19T11:45:40;16.80;99.90
25949;DHT22;13961;51.178;4.448;2022-10-19T11:56:58;16.80;99.90
25949;DHT22;13961;51.178;4.448;2022-10-19T11:59:56;16.90;99.90
25949;DHT22;13961;51.178;4.448;2022-10-19T12:11:03;17.00;99.90
25949;DHT22;13961;51.178;4.448;2022-10-19T12:13:43;17.10;99.90
25949;DHT22;13961;51.178;4.448;2022-10-19T12:16:12;17.20;99.90
25949;DHT22;13961;51.178;4.448;2022-10-19T12:21:21;17.30;99.90
25949;DHT22;13961;51.178;4.448;2022-10-19T12:23:49;17.40;99.90
25949;DHT22;13961;51.178;4.448;2022-10-19T12:26:17;17.60;99.90
25949;DHT22;13961;51.178;4.448;2022-10-19T12:28:54;17.90;99.90
25949;DHT22;13961;51.178;4.448;2022-10-19T12:31:24;17.70;99.90
25949;DHT22;13961;51.178;4.448;2022-10-19T12:39:48;17.40;99.90
25949;DHT22;13961;51.178;4.448;2022-10-19T12:42:47;17.20;99.90
25949;DHT22;13961;51.178;4.448;2022-10-19T13:01:07;17.00;99.90
25949;DHT22;13961;51.178;4.448;2022-10-19T13:03:39;17.00;99.90
25949;DHT22;13961;51.178;4.448;2022-10-19T13:11:18;17.10;99.90
25949;DHT22;13961;51.178;4.448;2022-10-19T13:24:30;17.20;99.90
25949;DHT22;13961;51.178;4.448;2022-10-19T13:32:40;17.40;99.90
25949;DHT22;13961;51.178;4.448;2022-10-19T14:05:44;17.30;99.90
25949;DHT22;13961;51.178;4.448;2022-10-19T14:13:36;16.90;99.90
25949;DHT22;13961;51.178;4.448;2022-10-19T14:16:02;16.90;99.90
25949;DHT22;13961;51.178;4.448;2022-10-19T14:18:30;16.90;99.90
25949;DHT22;13961;51.178;4.448;2022-10-19T14:21:03;16.80;99.90
25949;DHT22;13961;51.178;4.448;2022-10-19T14:23:30;16.90;99.90
25949;DHT22;13961;51.178;4.448;2022-10-19T14:25:57;16.70;99.90
25949;DHT22;13961;51.178;4.448;2022-10-19T14:28:23;16.70;99.90
25949;DHT22;13961;51.178;4.448;2022-10-19T14:30:58;16.60;99.90
25949;DHT22;13961;51.178;4.448;2022-10-19T14:33:26;16.60;99.90
25949;DHT22;13961;51.178;4.448;2022-10-19T14:35:54;16.70;99.90
25949;DHT22;13961;51.178;4.448;2022-10-19T14:40:50;16.50;99.90
25949;DHT22;13961;51.178;4.448;2022-10-19T14:43:28;16.50;99.90
25949;DHT22;13961;51.178;4.448;2022-10-19T14:48:36;16.50;99.90
25949;DHT22;13961;51.178;4.448;2022-10-19T14:53:54;16.80;99.90
25949;DHT22;13961;51.178;4.448;2022-10-19T14:56:48;16.90;99.90
25949;DHT22;13961;51.178;4.448;2022-10-19T15:01:55;17.00;99.90
25949;DHT22;13961;51.178;4.448;2022-10-19T15:04:25;17.00;99.90
25949;DHT22;13961;51.178;4.448;2022-10-19T15:06:53;16.90;99.90
25949;DHT22;13961;51.178;4.448;2022-10-19T15:09:28;16.90;99.90
25949;DHT22;13961;51.178;4.448;2022-10-19T15:12:06;16.90;99.90
25949;DHT22;13961;51.178;4.448;2022-10-19T15:14:33;16.80;99.90
25949;DHT22;13961;51.178;4.448;2022-10-19T15:17:01;16.70;99.90
25949;DHT22;13961;51.178;4.448;2022-10-19T15:24:58;16.60;99.90
25949;DHT22;13961;51.178;4.448;2022-10-19T15:27:33;16.70;99.90
25949;DHT22;13961;51.178;4.448;2022-10-19T15:30:28;16.40;99.90
25949;DHT22;13961;51.178;4.448;2022-10-19T15:35:35;16.20;99.90
25949;DHT22;13961;51.178;4.448;2022-10-19T15:38:24;16.20;99.90
25949;DHT22;13961;51.178;4.448;2022-10-19T15:40:59;16.10;99.90
25949;DHT22;13961;51.178;4.448;2022-10-19T15:43:48;16.10;99.90
25949;DHT22;13961;51.178;4.448;2022-10-19T15:48:48;16.00;99.90
25949;DHT22;13961;51.178;4.448;2022-10-19T15:53:53;15.80;99.90
25949;DHT22;13961;51.178;4.448;2022-10-19T15:56:23;15.80;99.90
25949;DHT22;13961;51.178;4.448;2022-10-19T15:58:56;15.80;99.90
25949;DHT22;13961;51.178;4.448;2022-10-19T16:01:25;15.90;99.90
25949;DHT22;13961;51.178;4.448;2022-10-19T16:03:52;15.90;99.90
25949;DHT22;13961;51.178;4.448;2022-10-19T16:06:19;15.80;99.90
25949;DHT22;13961;51.178;4.448;2022-10-19T16:08:46;15.70;99.90
25949;DHT22;13961;51.178;4.448;2022-10-19T16:11:17;15.70;99.90
25949;DHT22;13961;51.178;4.448;2022-10-19T16:13:43;15.80;99.90
25949;DHT22;13961;51.178;4.448;2022-10-19T16:16:12;15.70;99.90
25949;DHT22;13961;51.178;4.448;2022-10-19T16:18:39;15.60;99.90
25949;DHT22;13961;51.178;4.448;2022-10-19T16:21:06;15.50;99.90
25949;DHT22;13961;51.178;4.448;2022-10-19T16:23:32;15.40;99.90
25949;DHT22;13961;51.178;4.448;2022-10-19T16:26:00;15.40;99.90
25949;DHT22;13961;51.178;4.448;2022-10-19T16:28:27;15.30;99.90
25949;DHT22;13961;51.178;4.448;2022-10-19T16:30:53;15.30;99.90
25949;DHT22;13961;51.178;4.448;2022-10-19T16:33:19;15.20;99.90
25949;DHT22;13961;51.178;4.448;2022-10-19T16:35:46;15.10;99.90
25949;DHT22;13961;51.178;4.448;2022-10-19T16:38:11;15.10;99.90
25949;DHT22;13961;51.178;4.448;2022-10-19T16:40:37;15.10;99.90
25949;DHT22;13961;51.178;4.448;2022-10-19T16:43:03;15.10;99.90
25949;DHT22;13961;51.178;4.448;2022-10-19T16:45:29;15.10;99.90
25949;DHT22;13961;51.178;4.448;2022-10-19T16:47:56;15.20;99.90
25949;DHT22;13961;51.178;4.448;2022-10-19T16:50:22;15.10;99.90
25949;DHT22;13961;51.178;4.448;2022-10-19T16:53:08;15.00;99.90
25949;DHT22;13961;51.178;4.448;2022-10-19T16:55:38;15.00;99.90
25949;DHT22;13961;51.178;4.448;2022-10-19T16:58:04;14.90;99.90
25949;DHT22;13961;51.178;4.448;2022-10-19T17:00:31;14.70;99.90
25949;DHT22;13961;51.178;4.448;2022-10-19T17:02:56;14.70;99.90
25949;DHT22;13961;51.178;4.448;2022-10-19T17:05:22;14.70;99.90
25949;DHT22;13961;51.178;4.448;2022-10-19T17:07:48;14.70;99.90
25949;DHT22;13961;51.178;4.448;2022-10-19T17:10:14;14.50;99.90
25949;DHT22;13961;51.178;4.448;2022-10-19T17:12:40;14.60;99.90
25949;DHT22;13961;51.178;4.448;2022-10-19T17:15:07;14.60;99.90
25949;DHT22;13961;51.178;4.448;2022-10-19T17:17:33;14.60;99.90
25949;DHT22;13961;51.178;4.448;2022-10-19T17:19:58;14.50;99.90
25949;DHT22;13961;51.178;4.448;2022-10-19T17:22:24;14.50;99.90
25949;DHT22;13961;51.178;4.448;2022-10-19T17:24:49;14.40;99.90
25949;DHT22;13961;51.178;4.448;2022-10-19T17:27:16;14.50;99.90
25949;DHT22;13961;51.178;4.448;2022-10-19T17:29:42;14.50;99.90
25949;DHT22;13961;51.178;4.448;2022-10-19T17:32:07;14.30;99.90
25949;DHT22;13961;51.178;4.448;2022-10-19T17:34:33;14.30;99.90
25949;DHT22;13961;51.178;4.448;2022-10-19T17:36:59;14.30;99.90
25949;DHT22;13961;51.178;4.448;2022-10-19T17:39:25;14.40;99.90
25949;DHT22;13961;51.178;4.448;2022-10-19T17:41:51;14.40;99.90
25949;DHT22;13961;51.178;4.448;2022-10-19T17:44:19;14.30;99.90
25949;DHT22;13961;51.178;4.448;2022-10-19T17:46:45;14.20;99.90
25949;DHT22;13961;51.178;4.448;2022-10-19T17:49:11;14.20;99.90
25949;DHT22;13961;51.178;4.448;2022-10-19T17:51:37;14.20;99.90
25949;DHT22;13961;51.178;4.448;2022-10-19T17:54:07;14.10;99.90
25949;DHT22;13961;51.178;4.448;2022-10-19T17:56:34;14.00;99.90
25949;DHT22;13961;51.178;4.448;2022-10-19T17:59:00;14.00;99.90
25949;DHT22;13961;51.178;4.448;2022-10-19T18:01:28;14.10;99.90
25949;DHT22;13961;51.178;4.448;2022-10-19T18:03:53;14.20;99.90
25949;DHT22;13961;51.178;4.448;2022-10-19T18:06:25;14.10;99.90
25949;DHT22;13961;51.178;4.448;2022-10-19T18:08:53;14.10;99.90
25949;DHT22;13961;51.178;4.448;2022-10-19T18:11:21;14.40;99.90
25949;DHT22;13961;51.178;4.448;2022-10-19T18:13:49;14.00;99.90
25949;DHT22;13961;51.178;4.448;2022-10-19T18:16:30;13.90;99.90
25949;DHT22;13961;51.178;4.448;2022-10-19T18:18:58;13.90;99.90
25949;DHT22;13961;51.178;4.448;2022-10-19T18:21:27;13.90;99.90
25949;DHT22;13961;51.178;4.448;2022-10-19T18:23:55;13.70;99.90
25949;DHT22;13961;51.178;4.448;2022-10-19T18:26:23;13.70;99.90
25949;DHT22;13961;51.178;4.448;2022-10-19T18:28:56;13.70;99.90
25949;DHT22;13961;51.178;4.448;2022-10-19T18:31:24;13.60;99.90
25949;DHT22;13961;51.178;4.448;2022-10-19T18:34:04;13.80;99.90
25949;DHT22;13961;51.178;4.448;2022-10-19T18:36:31;13.70;99.90
25949;DHT22;13961;51.178;4.448;2022-10-19T18:38:59;13.60;99.90
25949;DHT22;13961;51.178;4.448;2022-10-19T18:41:25;13.60;99.90
25949;DHT22;13961;51.178;4.448;2022-10-19T18:43:58;13.60;99.90